sensor_id;sensor_type;location;lat;lon;timestamp;temperature;humidity
80230;DHT22;69540;42.136;24.742;2023-04-25T00:02:33;23.90;35.50
80230;DHT22;69540;42.136;24.742;2023-04-25T00:05:01;23.90;35.60
80230;DHT22;69540;42.136;24.742;2023-04-25T00:07:27;23.90;35.60
80230;DHT22;69540;42.136;24.742;2023-04-25T00:09:53;23.80;35.60
80230;DHT22;69540;42.136;24.742;2023-04-25T00:12:18;23.80;35.60
80230;DHT22;69540;42.136;24.742;2023-04-25T00:14:44;23.80;35.60
80230;DHT22;69540;42.136;24.742;2023-04-25T00:17:11;23.80;35.60
80230;DHT22;69540;42.136;24.742;2023-04-25T00:19:36;23.80;35.60
80230;DHT22;69540;42.136;24.742;2023-04-25T00:22:03;23.80;35.60
80230;DHT22;69540;42.136;24.742;2023-04-25T00:24:29;23.80;35.60
80230;DHT22;69540;42.136;24.742;2023-04-25T00:26:55;23.80;35.60
80230;DHT22;69540;42.136;24.742;2023-04-25T00:29:20;23.80;35.70
80230;DHT22;69540;42.136;24.742;2023-04-25T00:31:46;23.80;35.60
80230;DHT22;69540;42.136;24.742;2023-04-25T00:34:12;23.90;35.70
80230;DHT22;69540;42.136;24.742;2023-04-25T00:36:37;23.80;35.60
80230;DHT22;69540;42.136;24.742;2023-04-25T00:39:03;23.80;35.60
80230;DHT22;69540;42.136;24.742;2023-04-25T00:41:30;23.80;35.60
80230;DHT22;69540;42.136;24.742;2023-04-25T00:43:56;23.80;35.70
80230;DHT22;69540;42.136;24.742;2023-04-25T00:46:23;23.80;35.60
80230;DHT22;69540;42.136;24.742;2023-04-25T00:48:48;23.80;35.60
80230;DHT22;69540;42.136;24.742;2023-04-25T00:51:18;23.80;35.60
80230;DHT22;69540;42.136;24.742;2023-04-25T00:53:45;23.80;35.60
80230;DHT22;69540;42.136;24.742;2023-04-25T00:56:10;23.80;35.60
80230;DHT22;69540;42.136;24.742;2023-04-25T00:58:37;23.80;35.60
80230;DHT22;69540;42.136;24.742;2023-04-25T01:01:03;23.80;35.60
80230;DHT22;69540;42.136;24.742;2023-04-25T01:03:32;23.80;35.60
80230;DHT22;69540;42.136;24.742;2023-04-25T01:05:58;23.80;36.70
80230;DHT22;69540;42.136;24.742;2023-04-25T01:08:24;23.80;35.60
80230;DHT22;69540;42.136;24.742;2023-04-25T01:17:24;23.80;35.60
80230;DHT22;69540;42.136;24.742;2023-04-25T01:19:49;23.80;35.70
80230;DHT22;69540;42.136;24.742;2023-04-25T01:22:16;23.80;35.70
80230;DHT22;69540;42.136;24.742;2023-04-25T01:24:42;23.80;35.70
80230;DHT22;69540;42.136;24.742;2023-04-25T01:27:08;23.80;35.70
80230;DHT22;69540;42.136;24.742;2023-04-25T01:29:35;23.80;35.70
80230;DHT22;69540;42.136;24.742;2023-04-25T01:32:02;23.80;35.60
80230;DHT22;69540;42.136;24.742;2023-04-25T01:34:28;23.80;35.70
80230;DHT22;69540;42.136;24.742;2023-04-25T01:36:54;23.80;35.60
80230;DHT22;69540;42.136;24.742;2023-04-25T01:39:21;23.80;35.60
80230;DHT22;69540;42.136;24.742;2023-04-25T01:41:47;23.80;35.60
80230;DHT22;69540;42.136;24.742;2023-04-25T01:44:14;23.80;35.60
80230;DHT22;69540;42.136;24.742;2023-04-25T01:46:40;23.80;35.70
80230;DHT22;69540;42.136;24.742;2023-04-25T01:49:06;23.80;35.70
80230;DHT22;69540;42.136;24.742;2023-04-25T01:51:32;23.80;35.70
80230;DHT22;69540;42.136;24.742;2023-04-25T01:53:58;23.80;35.70
80230;DHT22;69540;42.136;24.742;2023-04-25T01:56:24;23.80;35.70
80230;DHT22;69540;42.136;24.742;2023-04-25T01:58:50;23.80;35.70
80230;DHT22;69540;42.136;24.742;2023-04-25T02:01:16;23.80;35.70
80230;DHT22;69540;42.136;24.742;2023-04-25T02:03:41;23.80;35.70
80230;DHT22;69540;42.136;24.742;2023-04-25T02:06:07;23.80;35.60
80230;DHT22;69540;42.136;24.742;2023-04-25T02:08:33;23.80;35.70
80230;DHT22;69540;42.136;24.742;2023-04-25T02:10:58;23.80;35.70
80230;DHT22;69540;42.136;24.742;2023-04-25T02:13:24;23.80;35.70
80230;DHT22;69540;42.136;24.742;2023-04-25T02:15:50;23.80;35.70
80230;DHT22;69540;42.136;24.742;2023-04-25T02:18:15;23.80;35.70
80230;DHT22;69540;42.136;24.742;2023-04-25T02:20:42;23.80;35.70
80230;DHT22;69540;42.136;24.742;2023-04-25T02:23:08;23.80;35.70
80230;DHT22;69540;42.136;24.742;2023-04-25T02:25:33;23.80;35.70
80230;DHT22;69540;42.136;24.742;2023-04-25T02:27:59;23.80;35.70
80230;DHT22;69540;42.136;24.742;2023-04-25T02:30:25;23.80;35.70
80230;DHT22;69540;42.136;24.742;2023-04-25T02:32:50;23.80;35.70
80230;DHT22;69540;42.136;24.742;2023-04-25T02:35:16;23.80;35.70
80230;DHT22;69540;42.136;24.742;2023-04-25T02:37:42;23.80;35.70
80230;DHT22;69540;42.136;24.742;2023-04-25T02:40:08;23.80;35.80
80230;DHT22;69540;42.136;24.742;2023-04-25T02:42:34;23.80;35.70
80230;DHT22;69540;42.136;24.742;2023-04-25T02:45:00;23.80;35.70
80230;DHT22;69540;42.136;24.742;2023-04-25T02:47:26;23.80;35.70
80230;DHT22;69540;42.136;24.742;2023-04-25T02:49:51;23.80;35.70
80230;DHT22;69540;42.136;24.742;2023-04-25T02:52:17;23.80;35.70
80230;DHT22;69540;42.136;24.742;2023-04-25T02:54:43;23.80;35.70
80230;DHT22;69540;42.136;24.742;2023-04-25T02:57:08;23.80;35.70
80230;DHT22;69540;42.136;24.742;2023-04-25T02:59:35;23.80;35.70
80230;DHT22;69540;42.136;24.742;2023-04-25T03:02:01;23.80;35.80
80230;DHT22;69540;42.136;24.742;2023-04-25T03:04:27;23.80;35.70
80230;DHT22;69540;42.136;24.742;2023-04-25T03:06:53;23.80;35.70
80230;DHT22;69540;42.136;24.742;2023-04-25T03:09:19;23.80;36.90
80230;DHT22;69540;42.136;24.742;2023-04-25T03:11:45;23.80;35.70
80230;DHT22;69540;42.136;24.742;2023-04-25T03:14:12;23.80;35.70
80230;DHT22;69540;42.136;24.742;2023-04-25T03:16:37;23.80;35.70
80230;DHT22;69540;42.136;24.742;2023-04-25T03:19:04;23.80;35.70
80230;DHT22;69540;42.136;24.742;2023-04-25T03:21:31;23.80;35.70
80230;DHT22;69540;42.136;24.742;2023-04-25T03:29:56;23.80;35.70
80230;DHT22;69540;42.136;24.742;2023-04-25T03:32:22;23.70;35.70
80230;DHT22;69540;42.136;24.742;2023-04-25T03:34:48;23.70;35.70
80230;DHT22;69540;42.136;24.742;2023-04-25T03:37:13;23.70;35.80
80230;DHT22;69540;42.136;24.742;2023-04-25T03:39:39;23.70;35.70
80230;DHT22;69540;42.136;24.742;2023-04-25T03:42:05;23.70;35.80
80230;DHT22;69540;42.136;24.742;2023-04-25T03:44:30;23.80;35.80
80230;DHT22;69540;42.136;24.742;2023-04-25T03:46:56;23.80;35.80
80230;DHT22;69540;42.136;24.742;2023-04-25T03:49:22;23.80;35.80
80230;DHT22;69540;42.136;24.742;2023-04-25T03:51:47;23.80;35.80
80230;DHT22;69540;42.136;24.742;2023-04-25T03:54:13;23.80;35.70
80230;DHT22;69540;42.136;24.742;2023-04-25T03:56:38;23.80;35.80
80230;DHT22;69540;42.136;24.742;2023-04-25T03:59:04;23.80;35.80
80230;DHT22;69540;42.136;24.742;2023-04-25T04:01:30;23.80;36.60
80230;DHT22;69540;42.136;24.742;2023-04-25T04:03:55;23.90;37.10
80230;DHT22;69540;42.136;24.742;2023-04-25T04:06:21;24.00;37.10
80230;DHT22;69540;42.136;24.742;2023-04-25T04:08:47;23.90;37.00
80230;DHT22;69540;42.136;24.742;2023-04-25T04:11:12;23.90;37.10
80230;DHT22;69540;42.136;24.742;2023-04-25T04:13:38;23.90;37.10
80230;DHT22;69540;42.136;24.742;2023-04-25T04:16:04;23.90;37.20
80230;DHT22;69540;42.136;24.742;2023-04-25T04:18:30;23.90;37.30
80230;DHT22;69540;42.136;24.742;2023-04-25T04:20:56;23.90;37.20
80230;DHT22;69540;42.136;24.742;2023-04-25T04:23:23;23.90;37.40
80230;DHT22;69540;42.136;24.742;2023-04-25T04:25:49;23.90;37.40
80230;DHT22;69540;42.136;24.742;2023-04-25T04:28:14;24.00;37.80
80230;DHT22;69540;42.136;24.742;2023-04-25T04:30:41;24.00;37.90
80230;DHT22;69540;42.136;24.742;2023-04-25T04:33:08;24.00;37.80
80230;DHT22;69540;42.136;24.742;2023-04-25T04:35:34;24.00;38.00
80230;DHT22;69540;42.136;24.742;2023-04-25T04:38:00;24.00;38.20
80230;DHT22;69540;42.136;24.742;2023-04-25T04:40:25;24.00;38.20
80230;DHT22;69540;42.136;24.742;2023-04-25T04:42:51;23.90;38.40
80230;DHT22;69540;42.136;24.742;2023-04-25T04:45:18;23.90;38.70
80230;DHT22;69540;42.136;24.742;2023-04-25T04:48:19;23.80;38.90
80230;DHT22;69540;42.136;24.742;2023-04-25T04:51:32;23.80;38.80
80230;DHT22;69540;42.136;24.742;2023-04-25T04:54:02;23.70;39.00
80230;DHT22;69540;42.136;24.742;2023-04-25T04:56:29;23.70;39.30
80230;DHT22;69540;42.136;24.742;2023-04-25T04:58:59;23.70;39.40
80230;DHT22;69540;42.136;24.742;2023-04-25T05:01:25;23.70;39.30
80230;DHT22;69540;42.136;24.742;2023-04-25T05:03:52;23.60;39.30
80230;DHT22;69540;42.136;24.742;2023-04-25T05:06:20;23.70;39.50
80230;DHT22;69540;42.136;24.742;2023-04-25T05:08:46;23.60;39.50
80230;DHT22;69540;42.136;24.742;2023-04-25T05:11:12;23.60;39.40
80230;DHT22;69540;42.136;24.742;2023-04-25T05:13:37;23.60;39.60
80230;DHT22;69540;42.136;24.742;2023-04-25T05:23:15;23.40;40.20
80230;DHT22;69540;42.136;24.742;2023-04-25T05:26:06;23.30;40.40
80230;DHT22;69540;42.136;24.742;2023-04-25T05:28:41;23.30;40.30
80230;DHT22;69540;42.136;24.742;2023-04-25T05:31:09;23.30;40.40
80230;DHT22;69540;42.136;24.742;2023-04-25T05:33:35;23.30;40.30
80230;DHT22;69540;42.136;24.742;2023-04-25T05:36:00;23.30;40.30
80230;DHT22;69540;42.136;24.742;2023-04-25T05:41:42;23.30;40.30
80230;DHT22;69540;42.136;24.742;2023-04-25T05:44:07;23.30;40.40
80230;DHT22;69540;42.136;24.742;2023-04-25T05:46:33;23.30;40.30
80230;DHT22;69540;42.136;24.742;2023-04-25T05:48:59;23.40;40.30
80230;DHT22;69540;42.136;24.742;2023-04-25T05:51:24;23.30;40.20
80230;DHT22;69540;42.136;24.742;2023-04-25T05:53:51;23.40;40.50
80230;DHT22;69540;42.136;24.742;2023-04-25T05:56:16;23.40;40.40
80230;DHT22;69540;42.136;24.742;2023-04-25T06:01:55;23.50;40.10
80230;DHT22;69540;42.136;24.742;2023-04-25T06:04:20;23.50;40.20
80230;DHT22;69540;42.136;24.742;2023-04-25T06:06:46;23.50;40.10
80230;DHT22;69540;42.136;24.742;2023-04-25T06:09:14;23.50;40.00
80230;DHT22;69540;42.136;24.742;2023-04-25T06:11:40;23.50;40.00
80230;DHT22;69540;42.136;24.742;2023-04-25T06:14:12;23.50;40.00
80230;DHT22;69540;42.136;24.742;2023-04-25T06:16:43;23.50;40.00
80230;DHT22;69540;42.136;24.742;2023-04-25T06:19:39;23.50;40.10
80230;DHT22;69540;42.136;24.742;2023-04-25T06:22:14;23.50;40.00
80230;DHT22;69540;42.136;24.742;2023-04-25T06:24:40;23.50;40.30
80230;DHT22;69540;42.136;24.742;2023-04-25T06:27:11;23.50;40.60
80230;DHT22;69540;42.136;24.742;2023-04-25T06:29:58;23.50;40.50
80230;DHT22;69540;42.136;24.742;2023-04-25T06:32:23;23.50;40.60
80230;DHT22;69540;42.136;24.742;2023-04-25T06:38:03;23.60;41.80
80230;DHT22;69540;42.136;24.742;2023-04-25T06:44:01;23.50;41.40
80230;DHT22;69540;42.136;24.742;2023-04-25T06:46:27;23.50;41.80
80230;DHT22;69540;42.136;24.742;2023-04-25T06:48:52;23.50;41.70
80230;DHT22;69540;42.136;24.742;2023-04-25T06:51:18;23.50;41.70
80230;DHT22;69540;42.136;24.742;2023-04-25T06:53:44;23.50;41.90
80230;DHT22;69540;42.136;24.742;2023-04-25T06:56:09;23.50;41.90
80230;DHT22;69540;42.136;24.742;2023-04-25T07:01:32;23.50;42.10
80230;DHT22;69540;42.136;24.742;2023-04-25T07:04:09;23.50;42.20
80230;DHT22;69540;42.136;24.742;2023-04-25T07:07:01;23.50;42.20
80230;DHT22;69540;42.136;24.742;2023-04-25T07:09:29;23.50;42.20
80230;DHT22;69540;42.136;24.742;2023-04-25T07:12:01;23.50;42.20
80230;DHT22;69540;42.136;24.742;2023-04-25T07:14:30;23.50;42.20
80230;DHT22;69540;42.136;24.742;2023-04-25T07:17:15;23.50;42.30
80230;DHT22;69540;42.136;24.742;2023-04-25T07:20:09;23.50;42.40
80230;DHT22;69540;42.136;24.742;2023-04-25T07:23:15;23.50;42.30
80230;DHT22;69540;42.136;24.742;2023-04-25T07:25:40;23.50;42.40
80230;DHT22;69540;42.136;24.742;2023-04-25T07:28:42;23.50;42.30
80230;DHT22;69540;42.136;24.742;2023-04-25T07:31:27;23.50;42.40
80230;DHT22;69540;42.136;24.742;2023-04-25T07:34:24;23.50;42.50
80230;DHT22;69540;42.136;24.742;2023-04-25T07:43:43;23.60;42.40
80230;DHT22;69540;42.136;24.742;2023-04-25T07:47:11;23.60;42.40
80230;DHT22;69540;42.136;24.742;2023-04-25T07:49:29;23.60;42.10
80230;DHT22;69540;42.136;24.742;2023-04-25T07:52:18;23.60;42.20
80230;DHT22;69540;42.136;24.742;2023-04-25T07:55:05;23.70;42.10
80230;DHT22;69540;42.136;24.742;2023-04-25T07:57:34;23.70;42.10
80230;DHT22;69540;42.136;24.742;2023-04-25T08:00:00;23.70;42.30
80230;DHT22;69540;42.136;24.742;2023-04-25T08:02:47;23.80;42.10
80230;DHT22;69540;42.136;24.742;2023-04-25T08:05:31;23.80;42.10
80230;DHT22;69540;42.136;24.742;2023-04-25T08:08:02;23.70;42.30
80230;DHT22;69540;42.136;24.742;2023-04-25T08:10:58;23.70;42.20
80230;DHT22;69540;42.136;24.742;2023-04-25T08:13:44;23.70;42.10
80230;DHT22;69540;42.136;24.742;2023-04-25T08:16:10;23.70;42.00
80230;DHT22;69540;42.136;24.742;2023-04-25T08:18:36;23.70;42.00
80230;DHT22;69540;42.136;24.742;2023-04-25T08:21:02;23.80;42.00
80230;DHT22;69540;42.136;24.742;2023-04-25T08:23:28;23.90;42.00
80230;DHT22;69540;42.136;24.742;2023-04-25T08:26:07;23.80;42.10
80230;DHT22;69540;42.136;24.742;2023-04-25T08:28:38;23.80;42.40
80230;DHT22;69540;42.136;24.742;2023-04-25T08:31:04;23.80;42.60
80230;DHT22;69540;42.136;24.742;2023-04-25T08:36:33;23.80;42.80
80230;DHT22;69540;42.136;24.742;2023-04-25T08:39:07;23.80;42.80
80230;DHT22;69540;42.136;24.742;2023-04-25T08:41:33;23.80;42.90
80230;DHT22;69540;42.136;24.742;2023-04-25T08:44:03;23.80;43.00
80230;DHT22;69540;42.136;24.742;2023-04-25T08:46:38;23.80;43.00
80230;DHT22;69540;42.136;24.742;2023-04-25T08:49:08;23.80;42.90
80230;DHT22;69540;42.136;24.742;2023-04-25T08:51:45;23.70;42.90
80230;DHT22;69540;42.136;24.742;2023-04-25T08:54:13;23.70;43.00
80230;DHT22;69540;42.136;24.742;2023-04-25T08:56:48;23.70;43.00
80230;DHT22;69540;42.136;24.742;2023-04-25T08:59:14;23.80;43.10
80230;DHT22;69540;42.136;24.742;2023-04-25T09:01:40;23.80;43.80
80230;DHT22;69540;42.136;24.742;2023-04-25T09:04:06;23.80;43.10
80230;DHT22;69540;42.136;24.742;2023-04-25T09:06:32;23.80;43.00
80230;DHT22;69540;42.136;24.742;2023-04-25T09:09:08;23.80;43.00
80230;DHT22;69540;42.136;24.742;2023-04-25T09:11:35;23.80;43.10
80230;DHT22;69540;42.136;24.742;2023-04-25T09:14:30;23.80;43.20
80230;DHT22;69540;42.136;24.742;2023-04-25T09:19:30;23.80;42.90
80230;DHT22;69540;42.136;24.742;2023-04-25T09:22:15;23.80;42.90
80230;DHT22;69540;42.136;24.742;2023-04-25T09:28:07;23.90;42.90
80230;DHT22;69540;42.136;24.742;2023-04-25T09:31:05;23.90;42.70
80230;DHT22;69540;42.136;24.742;2023-04-25T09:33:37;24.00;42.60
80230;DHT22;69540;42.136;24.742;2023-04-25T09:36:11;23.90;42.80
80230;DHT22;69540;42.136;24.742;2023-04-25T09:41:55;23.90;42.60
80230;DHT22;69540;42.136;24.742;2023-04-25T09:44:45;23.90;42.70
80230;DHT22;69540;42.136;24.742;2023-04-25T09:47:15;23.90;42.80
80230;DHT22;69540;42.136;24.742;2023-04-25T09:50:14;23.80;42.80
80230;DHT22;69540;42.136;24.742;2023-04-25T09:56:22;23.80;42.80
80230;DHT22;69540;42.136;24.742;2023-04-25T09:58:50;23.90;42.70
80230;DHT22;69540;42.136;24.742;2023-04-25T10:01:19;23.90;42.60
80230;DHT22;69540;42.136;24.742;2023-04-25T10:04:04;23.90;42.50
80230;DHT22;69540;42.136;24.742;2023-04-25T10:06:57;23.90;42.70
80230;DHT22;69540;42.136;24.742;2023-04-25T10:09:26;24.00;42.50
80230;DHT22;69540;42.136;24.742;2023-04-25T10:15:27;24.00;42.20
80230;DHT22;69540;42.136;24.742;2023-04-25T10:21:40;24.00;42.30
80230;DHT22;69540;42.136;24.742;2023-04-25T10:24:16;23.90;42.30
80230;DHT22;69540;42.136;24.742;2023-04-25T10:27:07;24.00;42.20
80230;DHT22;69540;42.136;24.742;2023-04-25T10:29:39;24.00;42.00
80230;DHT22;69540;42.136;24.742;2023-04-25T10:32:15;24.00;42.00
80230;DHT22;69540;42.136;24.742;2023-04-25T10:35:10;24.00;41.80
80230;DHT22;69540;42.136;24.742;2023-04-25T10:37:36;24.00;41.80
80230;DHT22;69540;42.136;24.742;2023-04-25T10:40:22;24.00;41.70
80230;DHT22;69540;42.136;24.742;2023-04-25T10:42:48;24.00;41.60
80230;DHT22;69540;42.136;24.742;2023-04-25T10:45:14;24.00;41.60
80230;DHT22;69540;42.136;24.742;2023-04-25T10:47:46;24.00;41.60
80230;DHT22;69540;42.136;24.742;2023-04-25T10:50:39;24.00;41.60
80230;DHT22;69540;42.136;24.742;2023-04-25T10:53:17;24.00;41.90
80230;DHT22;69540;42.136;24.742;2023-04-25T10:55:52;23.90;42.00
80230;DHT22;69540;42.136;24.742;2023-04-25T10:58:50;23.90;41.80
80230;DHT22;69540;42.136;24.742;2023-04-25T11:02:19;23.90;41.80
80230;DHT22;69540;42.136;24.742;2023-04-25T11:04:51;24.00;41.70
80230;DHT22;69540;42.136;24.742;2023-04-25T11:10:41;23.90;41.50
80230;DHT22;69540;42.136;24.742;2023-04-25T11:13:32;23.90;41.60
80230;DHT22;69540;42.136;24.742;2023-04-25T11:15:58;23.90;41.70
80230;DHT22;69540;42.136;24.742;2023-04-25T11:18:26;23.90;41.80
80230;DHT22;69540;42.136;24.742;2023-04-25T11:23:36;23.90;41.80
80230;DHT22;69540;42.136;24.742;2023-04-25T11:26:03;23.90;41.80
80230;DHT22;69540;42.136;24.742;2023-04-25T11:28:29;23.90;41.70
80230;DHT22;69540;42.136;24.742;2023-04-25T11:30:55;23.90;41.60
80230;DHT22;69540;42.136;24.742;2023-04-25T11:33:24;23.90;41.60
80230;DHT22;69540;42.136;24.742;2023-04-25T11:36:01;24.00;41.50
80230;DHT22;69540;42.136;24.742;2023-04-25T11:38:47;24.00;41.30
80230;DHT22;69540;42.136;24.742;2023-04-25T11:41:13;24.00;41.40
80230;DHT22;69540;42.136;24.742;2023-04-25T11:43:39;24.00;41.30
80230;DHT22;69540;42.136;24.742;2023-04-25T11:46:11;24.00;41.40
80230;DHT22;69540;42.136;24.742;2023-04-25T11:48:56;24.00;41.30
80230;DHT22;69540;42.136;24.742;2023-04-25T11:54:19;24.00;41.30
80230;DHT22;69540;42.136;24.742;2023-04-25T11:56:46;23.90;41.40
80230;DHT22;69540;42.136;24.742;2023-04-25T11:59:12;24.00;41.30
80230;DHT22;69540;42.136;24.742;2023-04-25T12:01:41;23.90;41.40
80230;DHT22;69540;42.136;24.742;2023-04-25T12:04:17;24.00;41.30
80230;DHT22;69540;42.136;24.742;2023-04-25T12:07:15;23.90;41.30
80230;DHT22;69540;42.136;24.742;2023-04-25T12:09:51;24.00;41.30
80230;DHT22;69540;42.136;24.742;2023-04-25T12:12:18;24.00;41.30
80230;DHT22;69540;42.136;24.742;2023-04-25T12:18:07;24.00;41.30
80230;DHT22;69540;42.136;24.742;2023-04-25T12:20:36;24.00;41.30
80230;DHT22;69540;42.136;24.742;2023-04-25T12:23:39;24.00;41.40
80230;DHT22;69540;42.136;24.742;2023-04-25T12:26:08;24.00;41.40
80230;DHT22;69540;42.136;24.742;2023-04-25T12:28:33;24.00;41.30
80230;DHT22;69540;42.136;24.742;2023-04-25T12:31:09;24.00;41.30
80230;DHT22;69540;42.136;24.742;2023-04-25T12:33:37;24.10;41.40
80230;DHT22;69540;42.136;24.742;2023-04-25T12:36:04;24.20;41.10
80230;DHT22;69540;42.136;24.742;2023-04-25T12:38:41;24.20;41.00
80230;DHT22;69540;42.136;24.742;2023-04-25T12:41:16;24.30;41.00
80230;DHT22;69540;42.136;24.742;2023-04-25T12:44:06;24.30;41.10
80230;DHT22;69540;42.136;24.742;2023-04-25T12:46:38;24.30;40.90
80230;DHT22;69540;42.136;24.742;2023-04-25T12:49:04;24.20;41.20
80230;DHT22;69540;42.136;24.742;2023-04-25T12:51:32;24.20;41.30
80230;DHT22;69540;42.136;24.742;2023-04-25T12:53:59;24.30;41.20
80230;DHT22;69540;42.136;24.742;2023-04-25T12:56:47;24.30;41.10
80230;DHT22;69540;42.136;24.742;2023-04-25T13:05:52;24.20;41.20
80230;DHT22;69540;42.136;24.742;2023-04-25T13:08:49;24.10;41.30
80230;DHT22;69540;42.136;24.742;2023-04-25T13:11:39;24.20;41.20
80230;DHT22;69540;42.136;24.742;2023-04-25T13:14:19;24.20;41.40
80230;DHT22;69540;42.136;24.742;2023-04-25T13:16:58;24.20;41.80
80230;DHT22;69540;42.136;24.742;2023-04-25T13:19:41;24.20;41.90
80230;DHT22;69540;42.136;24.742;2023-04-25T13:22:07;24.30;41.60
80230;DHT22;69540;42.136;24.742;2023-04-25T13:25:02;24.30;41.60
80230;DHT22;69540;42.136;24.742;2023-04-25T13:27:48;24.40;41.40
80230;DHT22;69540;42.136;24.742;2023-04-25T13:30:14;24.20;41.30
80230;DHT22;69540;42.136;24.742;2023-04-25T13:32:40;24.20;41.00
80230;DHT22;69540;42.136;24.742;2023-04-25T13:35:21;24.20;40.70
80230;DHT22;69540;42.136;24.742;2023-04-25T13:38:13;24.20;40.60
80230;DHT22;69540;42.136;24.742;2023-04-25T13:40:39;24.20;40.20
80230;DHT22;69540;42.136;24.742;2023-04-25T13:43:23;24.30;39.80
80230;DHT22;69540;42.136;24.742;2023-04-25T13:49:12;24.30;38.40
80230;DHT22;69540;42.136;24.742;2023-04-25T13:51:43;24.20;38.80
80230;DHT22;69540;42.136;24.742;2023-04-25T13:57:10;24.20;38.50
80230;DHT22;69540;42.136;24.742;2023-04-25T13:59:40;24.20;38.50
80230;DHT22;69540;42.136;24.742;2023-04-25T14:02:20;24.20;38.60
80230;DHT22;69540;42.136;24.742;2023-04-25T14:11:36;24.30;38.30
80230;DHT22;69540;42.136;24.742;2023-04-25T14:14:07;24.30;38.30
80230;DHT22;69540;42.136;24.742;2023-04-25T14:17:05;24.30;38.40
80230;DHT22;69540;42.136;24.742;2023-04-25T14:19:37;24.30;38.50
80230;DHT22;69540;42.136;24.742;2023-04-25T14:25:38;24.40;38.50
80230;DHT22;69540;42.136;24.742;2023-04-25T14:28:10;24.30;38.50
80230;DHT22;69540;42.136;24.742;2023-04-25T14:30:36;24.40;38.60
80230;DHT22;69540;42.136;24.742;2023-04-25T14:33:01;24.30;38.60
80230;DHT22;69540;42.136;24.742;2023-04-25T14:35:46;24.40;38.70
80230;DHT22;69540;42.136;24.742;2023-04-25T14:38:12;24.40;38.50
80230;DHT22;69540;42.136;24.742;2023-04-25T14:40:38;24.40;38.40
80230;DHT22;69540;42.136;24.742;2023-04-25T14:43:04;24.40;38.40
80230;DHT22;69540;42.136;24.742;2023-04-25T14:45:30;24.50;38.50
80230;DHT22;69540;42.136;24.742;2023-04-25T14:48:03;24.50;38.50
80230;DHT22;69540;42.136;24.742;2023-04-25T14:50:43;24.60;38.50
80230;DHT22;69540;42.136;24.742;2023-04-25T14:53:11;24.60;38.70
80230;DHT22;69540;42.136;24.742;2023-04-25T14:55:37;24.60;38.40
80230;DHT22;69540;42.136;24.742;2023-04-25T14:58:42;24.60;38.50
80230;DHT22;69540;42.136;24.742;2023-04-25T15:01:14;24.60;38.20
80230;DHT22;69540;42.136;24.742;2023-04-25T15:03:40;24.60;37.80
80230;DHT22;69540;42.136;24.742;2023-04-25T15:06:06;24.60;37.50
80230;DHT22;69540;42.136;24.742;2023-04-25T15:08:31;24.60;37.30
80230;DHT22;69540;42.136;24.742;2023-04-25T15:10:58;24.60;37.20
80230;DHT22;69540;42.136;24.742;2023-04-25T15:13:24;24.50;37.30
80230;DHT22;69540;42.136;24.742;2023-04-25T15:15:57;24.50;36.80
80230;DHT22;69540;42.136;24.742;2023-04-25T15:18:26;24.60;36.80
80230;DHT22;69540;42.136;24.742;2023-04-25T15:20:57;24.50;36.70
80230;DHT22;69540;42.136;24.742;2023-04-25T15:23:32;24.60;36.60
80230;DHT22;69540;42.136;24.742;2023-04-25T15:25:58;24.50;36.40
80230;DHT22;69540;42.136;24.742;2023-04-25T15:28:30;24.50;36.50
80230;DHT22;69540;42.136;24.742;2023-04-25T15:30:59;24.60;36.20
80230;DHT22;69540;42.136;24.742;2023-04-25T15:33:25;24.60;36.10
80230;DHT22;69540;42.136;24.742;2023-04-25T15:35:51;24.60;35.80
80230;DHT22;69540;42.136;24.742;2023-04-25T15:39:02;24.60;35.80
80230;DHT22;69540;42.136;24.742;2023-04-25T15:41:52;24.60;35.90
80230;DHT22;69540;42.136;24.742;2023-04-25T15:44:30;24.50;35.80
80230;DHT22;69540;42.136;24.742;2023-04-25T15:47:21;24.50;35.80
80230;DHT22;69540;42.136;24.742;2023-04-25T15:49:55;24.50;35.70
80230;DHT22;69540;42.136;24.742;2023-04-25T15:52:37;24.50;35.80
80230;DHT22;69540;42.136;24.742;2023-04-25T15:55:04;24.40;35.70
80230;DHT22;69540;42.136;24.742;2023-04-25T15:57:31;24.40;35.70
80230;DHT22;69540;42.136;24.742;2023-04-25T15:59:57;24.50;35.70
80230;DHT22;69540;42.136;24.742;2023-04-25T16:02:22;24.40;35.50
80230;DHT22;69540;42.136;24.742;2023-04-25T16:04:48;24.40;35.40
80230;DHT22;69540;42.136;24.742;2023-04-25T16:07:14;24.40;35.40
80230;DHT22;69540;42.136;24.742;2023-04-25T16:09:39;24.40;35.10
80230;DHT22;69540;42.136;24.742;2023-04-25T16:12:07;24.40;35.90
80230;DHT22;69540;42.136;24.742;2023-04-25T16:14:33;24.50;34.80
80230;DHT22;69540;42.136;24.742;2023-04-25T16:16:58;24.40;34.80
80230;DHT22;69540;42.136;24.742;2023-04-25T16:19:24;24.40;34.80
80230;DHT22;69540;42.136;24.742;2023-04-25T16:21:50;24.40;34.30
80230;DHT22;69540;42.136;24.742;2023-04-25T16:24:16;24.40;34.30
80230;DHT22;69540;42.136;24.742;2023-04-25T16:26:42;24.50;34.10
80230;DHT22;69540;42.136;24.742;2023-04-25T16:29:09;24.40;34.10
80230;DHT22;69540;42.136;24.742;2023-04-25T16:31:35;24.50;34.20
80230;DHT22;69540;42.136;24.742;2023-04-25T16:34:01;24.40;34.10
80230;DHT22;69540;42.136;24.742;2023-04-25T16:36:27;24.40;34.20
80230;DHT22;69540;42.136;24.742;2023-04-25T16:39:02;24.40;34.10
80230;DHT22;69540;42.136;24.742;2023-04-25T16:44:28;24.50;34.10
80230;DHT22;69540;42.136;24.742;2023-04-25T16:50:20;24.40;34.30
80230;DHT22;69540;42.136;24.742;2023-04-25T16:52:46;24.40;34.50
80230;DHT22;69540;42.136;24.742;2023-04-25T16:55:12;24.40;34.60
80230;DHT22;69540;42.136;24.742;2023-04-25T16:57:37;24.30;34.70
80230;DHT22;69540;42.136;24.742;2023-04-25T17:00:05;24.40;34.80
80230;DHT22;69540;42.136;24.742;2023-04-25T17:02:30;24.40;34.90
80230;DHT22;69540;42.136;24.742;2023-04-25T17:04:56;24.40;34.70
80230;DHT22;69540;42.136;24.742;2023-04-25T17:07:22;24.40;34.70
80230;DHT22;69540;42.136;24.742;2023-04-25T17:09:49;24.40;34.70
80230;DHT22;69540;42.136;24.742;2023-04-25T17:12:18;24.50;34.80
80230;DHT22;69540;42.136;24.742;2023-04-25T17:14:45;24.40;34.70
80230;DHT22;69540;42.136;24.742;2023-04-25T17:17:11;24.50;34.80
80230;DHT22;69540;42.136;24.742;2023-04-25T17:19:37;24.50;34.80
80230;DHT22;69540;42.136;24.742;2023-04-25T17:22:03;24.50;34.80
80230;DHT22;69540;42.136;24.742;2023-04-25T17:24:28;24.50;34.90
80230;DHT22;69540;42.136;24.742;2023-04-25T17:26:54;24.50;34.90
80230;DHT22;69540;42.136;24.742;2023-04-25T17:29:21;24.50;34.90